createdAt,value
2018-07-08T00:01:11.770Z,2.27
2018-07-08T00:03:39.805Z,2.50
2018-07-08T00:06:08.265Z,3.10
2018-07-08T00:08:36.265Z,2.80
2018-07-08T00:11:04.402Z,3.00
2018-07-08T00:13:35.033Z,2.53
2018-07-08T00:16:07.611Z,2.20
2018-07-08T00:18:35.968Z,2.50
2018-07-08T00:21:05.325Z,2.83
2018-07-08T00:23:34.514Z,2.57
2018-07-08T00:26:02.788Z,2.60
2018-07-08T00:28:31.553Z,2.60
2018-07-08T00:31:00.157Z,2.40
2018-07-08T00:33:28.335Z,2.13
2018-07-08T00:35:56.650Z,2.37
2018-07-08T00:38:24.736Z,2.27
2018-07-08T00:40:53.373Z,2.60
2018-07-08T00:43:24.209Z,2.60
2018-07-08T00:45:52.038Z,2.57
2018-07-08T00:48:20.375Z,2.30
2018-07-08T00:50:48.406Z,2.33
2018-07-08T00:53:16.882Z,2.37
2018-07-08T00:55:45.058Z,2.30
2018-07-08T00:58:13.354Z,2.60
2018-07-08T01:00:43.097Z,2.50
2018-07-08T01:03:11.991Z,2.67
2018-07-08T01:05:40.222Z,2.17
2018-07-08T01:08:08.510Z,2.60
2018-07-08T01:10:37.541Z,2.10
2018-07-08T01:13:05.950Z,2.73
2018-07-08T01:15:34.182Z,2.50
2018-07-08T01:18:02.264Z,3.00
2018-07-08T01:20:30.743Z,2.40
2018-07-08T01:22:59.197Z,2.80
2018-07-08T01:25:38.620Z,2.30
2018-07-08T01:28:08.192Z,2.33
2018-07-08T01:30:37.789Z,2.03
2018-07-08T01:33:05.974Z,2.40
2018-07-08T01:35:33.951Z,2.63
2018-07-08T01:38:02.048Z,2.20
2018-07-08T01:40:30.145Z,2.43
2018-07-08T01:42:58.950Z,2.40
2018-07-08T01:45:36.887Z,2.23
2018-07-08T01:48:05.189Z,2.43
2018-07-08T01:50:33.087Z,2.53
2018-07-08T01:53:01.950Z,2.53
2018-07-08T01:55:29.994Z,2.50
2018-07-08T01:57:58.551Z,2.60
2018-07-08T02:00:27.088Z,2.67
2018-07-08T02:02:55.701Z,2.53
2018-07-08T02:05:23.750Z,2.33
2018-07-08T02:07:51.987Z,2.27
2018-07-08T02:10:21.367Z,2.60
2018-07-08T02:12:50.032Z,2.63
2018-07-08T02:15:18.370Z,2.73
2018-07-08T02:17:47.122Z,2.50
2018-07-08T02:20:17.397Z,2.40
2018-07-08T02:22:46.314Z,2.30
2018-07-08T02:25:14.522Z,2.73
2018-07-08T02:27:43.007Z,2.53
2018-07-08T02:30:11.075Z,3.10
2018-07-08T02:32:39.477Z,3.37
2018-07-08T02:35:07.571Z,3.13
2018-07-08T02:37:35.730Z,2.97
2018-07-08T02:40:03.941Z,3.30
2018-07-08T02:42:32.069Z,3.00
2018-07-08T02:45:00.366Z,2.83
2018-07-08T02:47:28.434Z,3.10
2018-07-08T02:49:56.434Z,2.63
2018-07-08T02:52:24.449Z,2.67
2018-07-08T02:54:52.504Z,2.97
2018-07-08T02:57:20.699Z,2.50
2018-07-08T02:59:48.576Z,2.83
2018-07-08T03:02:16.429Z,2.80
2018-07-08T03:04:44.256Z,2.43
2018-07-08T03:07:13.785Z,2.40
2018-07-08T03:09:41.945Z,2.30
2018-07-08T03:12:11.346Z,2.30
2018-07-08T03:14:39.544Z,2.60
2018-07-08T03:17:08.401Z,2.53
2018-07-08T03:19:37.839Z,2.70
2018-07-08T03:22:06.389Z,2.80
2018-07-08T03:24:35.194Z,2.60
2018-07-08T03:27:05.284Z,2.80
2018-07-08T03:29:33.561Z,2.80
2018-07-08T03:32:01.802Z,2.80
2018-07-08T03:34:30.516Z,2.60
2018-07-08T03:36:58.533Z,2.63
2018-07-08T03:39:26.393Z,2.47
2018-07-08T03:41:54.712Z,2.40
2018-07-08T03:44:22.696Z,2.90
2018-07-08T03:46:50.886Z,2.63
2018-07-08T03:49:19.145Z,2.50
2018-07-08T03:51:47.482Z,2.60
2018-07-08T03:54:20.885Z,2.60
2018-07-08T03:56:49.697Z,2.80
2018-07-08T03:59:17.865Z,2.90
2018-07-08T04:01:46.241Z,2.93
2018-07-08T04:04:14.454Z,2.83
2018-07-08T04:06:42.850Z,2.80
2018-07-08T04:09:11.201Z,3.03
2018-07-08T04:11:40.162Z,3.00
2018-07-08T04:14:08.276Z,2.80
2018-07-08T04:16:36.732Z,3.10
2018-07-08T04:19:05.121Z,2.93
2018-07-08T04:21:33.622Z,2.70
2018-07-08T04:24:01.747Z,3.10
2018-07-08T04:26:29.927Z,3.03
2018-07-08T04:28:58.458Z,2.73
2018-07-08T04:31:26.681Z,3.00
2018-07-08T04:33:55.028Z,3.63
2018-07-08T04:36:23.035Z,3.10
2018-07-08T04:38:51.297Z,3.27
2018-07-08T04:41:19.509Z,3.10
2018-07-08T04:43:47.569Z,3.90
2018-07-08T04:46:15.857Z,3.23
2018-07-08T04:48:43.986Z,3.17
2018-07-08T04:51:12.200Z,3.90
2018-07-08T04:53:40.383Z,3.27
2018-07-08T04:56:08.629Z,3.20
2018-07-08T04:58:37.778Z,3.27
2018-07-08T05:01:05.883Z,3.17
2018-07-08T05:03:34.174Z,3.07
2018-07-08T05:06:02.245Z,3.40
2018-07-08T05:08:30.234Z,3.50
2018-07-08T05:10:58.500Z,3.70
2018-07-08T05:13:26.794Z,3.67
2018-07-08T05:15:54.982Z,3.40
2018-07-08T05:18:23.778Z,4.23
2018-07-08T05:20:53.163Z,4.00
2018-07-08T05:23:22.505Z,4.03
2018-07-08T05:25:50.801Z,4.03
2018-07-08T05:28:19.137Z,4.03
2018-07-08T05:30:50.513Z,4.00
2018-07-08T05:33:18.733Z,4.70
2018-07-08T05:35:47.004Z,4.00
2018-07-08T05:38:15.016Z,3.20
2018-07-08T05:40:43.042Z,3.33
2018-07-08T05:43:12.118Z,3.77
2018-07-08T05:45:40.141Z,3.17
2018-07-08T05:48:08.172Z,3.67
2018-07-08T05:50:36.414Z,3.50
2018-07-08T05:53:04.523Z,3.47
2018-07-08T05:55:32.566Z,3.67
2018-07-08T05:58:04.743Z,3.63
2018-07-08T06:00:33.257Z,3.30
2018-07-08T06:03:02.409Z,3.20
2018-07-08T06:05:31.889Z,3.83
2018-07-08T06:07:59.985Z,3.27
2018-07-08T06:10:28.974Z,3.00
2018-07-08T06:12:56.982Z,3.50
2018-07-08T06:15:25.485Z,2.73
2018-07-08T06:17:56.093Z,3.10
2018-07-08T06:20:24.259Z,3.20
2018-07-08T06:22:52.621Z,2.53
2018-07-08T06:25:20.600Z,2.77
2018-07-08T06:27:49.352Z,2.50
2018-07-08T06:30:17.467Z,2.50
2018-07-08T06:32:45.623Z,2.33
2018-07-08T06:35:14.018Z,2.27
2018-07-08T06:37:42.070Z,2.60
2018-07-08T06:40:10.219Z,2.43
2018-07-08T06:42:38.376Z,2.30
2018-07-08T06:45:06.407Z,2.10
2018-07-08T06:47:34.672Z,2.00
2018-07-08T06:50:04.141Z,2.20
2018-07-08T06:52:34.033Z,1.93
2018-07-08T06:55:02.394Z,2.10
2018-07-08T06:57:30.674Z,2.53
2018-07-08T06:59:58.728Z,2.43
2018-07-08T07:02:28.125Z,2.10
2018-07-08T07:04:56.726Z,2.00
2018-07-08T07:07:25.090Z,1.93
2018-07-08T07:09:53.330Z,2.10
2018-07-08T07:12:28.774Z,2.13
2018-07-08T07:15:00.052Z,1.90
2018-07-08T07:17:28.114Z,2.03
2018-07-08T07:19:56.218Z,1.60
2018-07-08T07:22:25.248Z,1.83
2018-07-08T07:24:53.443Z,1.87
2018-07-08T07:27:22.338Z,1.87
2018-07-08T07:29:51.206Z,1.87
2018-07-08T07:32:19.275Z,1.90
2018-07-08T07:34:47.591Z,1.80
2018-07-08T07:37:16.509Z,2.03
2018-07-08T07:39:45.262Z,1.70
2018-07-08T07:42:14.635Z,1.90
2018-07-08T07:44:42.724Z,1.60
2018-07-08T07:47:11.753Z,1.80
2018-07-08T07:49:41.245Z,1.60
2018-07-08T07:52:11.358Z,1.63
2018-07-08T07:54:39.843Z,1.70
2018-07-08T07:57:08.010Z,1.40
2018-07-08T07:59:38.009Z,2.10
2018-07-08T08:02:07.182Z,1.53
2018-07-08T08:04:35.748Z,1.53
2018-07-08T08:07:04.615Z,1.60
2018-07-08T08:09:35.767Z,1.40
2018-07-08T08:12:05.371Z,1.47
2018-07-08T08:14:34.841Z,1.80
2018-07-08T08:17:03.001Z,1.80
2018-07-08T08:19:31.639Z,1.47
2018-07-08T08:22:01.087Z,1.50
2018-07-08T08:24:33.144Z,1.27
2018-07-08T08:27:02.339Z,1.20
2018-07-08T08:29:31.810Z,1.60
2018-07-08T08:32:00.875Z,1.07
2018-07-08T08:35:06.489Z,1.00
2018-07-08T08:37:37.956Z,1.20
2018-07-08T08:40:07.589Z,1.27
2018-07-08T08:42:38.290Z,1.07
2018-07-08T08:45:09.283Z,1.40
2018-07-08T08:47:38.331Z,1.20
2018-07-08T08:50:07.358Z,1.20
2018-07-08T08:52:38.520Z,1.23
2018-07-08T08:55:08.321Z,1.10
2018-07-08T08:57:38.019Z,1.23
2018-07-08T09:00:08.265Z,1.20
2018-07-08T09:02:38.354Z,1.33
2018-07-08T09:05:07.601Z,1.20
2018-07-08T09:07:38.294Z,1.10
2018-07-08T09:10:07.362Z,1.17
2018-07-08T09:12:36.370Z,1.40
2018-07-08T09:15:05.211Z,1.33
2018-07-08T09:17:33.654Z,1.30
2018-07-08T09:20:07.069Z,1.20
2018-07-08T09:22:42.824Z,1.10
2018-07-08T09:25:11.632Z,1.03
2018-07-08T09:27:40.523Z,1.10
2018-07-08T09:30:09.086Z,1.07
2018-07-08T09:32:37.582Z,1.00
2018-07-08T09:35:05.657Z,1.00
2018-07-08T09:37:36.801Z,1.13
2018-07-08T09:40:06.618Z,1.17
2018-07-08T09:42:40.621Z,1.00
2018-07-08T09:45:10.320Z,1.10
2018-07-08T09:47:39.827Z,1.00
2018-07-08T09:50:08.374Z,1.00
2018-07-08T09:52:37.793Z,1.00
2018-07-08T09:55:07.429Z,1.10
2018-07-08T09:57:36.224Z,1.23
2018-07-08T10:00:06.106Z,1.17
2018-07-08T10:02:35.537Z,1.00
2018-07-08T10:05:04.512Z,1.00
2018-07-08T10:07:35.281Z,1.20
2018-07-08T10:10:04.033Z,0.90
2018-07-08T10:12:33.217Z,0.93
2018-07-08T10:15:01.338Z,1.10
2018-07-08T10:17:31.161Z,0.80
2018-07-08T10:20:00.131Z,0.90
2018-07-08T10:22:28.366Z,0.87
2018-07-08T10:24:57.842Z,1.23
2018-07-08T10:29:43.053Z,0.90
2018-07-08T10:32:13.782Z,1.20
2018-07-08T10:34:42.083Z,0.90
2018-07-08T10:37:11.686Z,1.07
2018-07-08T10:39:41.218Z,1.17
2018-07-08T10:42:13.078Z,1.17
2018-07-08T10:44:42.872Z,0.87
2018-07-08T10:47:14.263Z,1.60
2018-07-08T10:49:42.608Z,0.80
2018-07-08T10:52:12.730Z,1.10
2018-07-08T10:54:42.308Z,1.30
2018-07-08T10:57:12.174Z,1.10
2018-07-08T10:59:41.349Z,1.17
2018-07-08T11:02:10.727Z,1.10
2018-07-08T11:04:42.803Z,1.10
2018-07-08T11:07:11.326Z,1.10
2018-07-08T11:09:44.886Z,1.23
2018-07-08T11:12:15.924Z,1.30
2018-07-08T11:14:45.389Z,0.80
2018-07-08T11:17:15.025Z,1.10
2018-07-08T11:19:43.283Z,0.90
2018-07-08T11:22:11.891Z,4.10
2018-07-08T11:24:41.080Z,1.27
2018-07-08T11:27:10.806Z,0.90
2018-07-08T11:29:38.969Z,1.00
2018-07-08T11:32:10.339Z,1.10
2018-07-08T11:34:38.806Z,1.10
2018-07-08T11:37:07.346Z,1.00
2018-07-08T11:39:35.847Z,1.30
2018-07-08T11:42:04.364Z,1.07
2018-07-08T11:44:35.823Z,1.13
2018-07-08T11:47:04.090Z,1.30
2018-07-08T11:49:35.356Z,0.97
2018-07-08T11:52:12.427Z,1.33
2018-07-08T11:54:40.478Z,0.97
2018-07-08T11:57:08.797Z,1.00
2018-07-08T11:59:38.075Z,1.10
2018-07-08T12:02:07.345Z,1.10
2018-07-08T12:04:35.994Z,0.97
2018-07-08T12:07:05.604Z,1.10
2018-07-08T12:09:33.897Z,1.30
2018-07-08T12:12:05.620Z,1.20
2018-07-08T12:14:41.573Z,4.13
2018-07-08T12:19:49.659Z,1.20
2018-07-08T12:22:17.984Z,0.97
2018-07-08T12:24:47.294Z,0.90
2018-07-08T12:27:15.454Z,1.10
2018-07-08T12:29:45.074Z,1.10
2018-07-08T12:32:13.692Z,1.00
2018-07-08T12:34:41.931Z,0.93
2018-07-08T12:37:10.435Z,0.93
2018-07-08T12:39:38.938Z,1.37
2018-07-08T12:42:10.379Z,1.27
2018-07-08T12:44:38.935Z,1.37
2018-07-08T12:47:08.548Z,1.00
2018-07-08T12:49:37.785Z,1.10
2018-07-08T12:52:10.490Z,1.30
2018-07-08T12:54:40.694Z,1.10
2018-07-08T12:57:12.549Z,1.17
2018-07-08T12:59:41.849Z,1.10
2018-07-08T13:02:10.670Z,1.23
2018-07-08T13:04:40.608Z,1.17
2018-07-08T13:07:09.377Z,1.10
2018-07-08T13:09:55.369Z,1.10
2018-07-08T13:12:30.366Z,1.07
2018-07-08T13:14:59.698Z,1.50
2018-07-08T13:17:30.105Z,1.60
2018-07-08T13:19:59.368Z,1.40
2018-07-08T13:22:28.398Z,1.30
2018-07-08T13:24:58.196Z,1.47
2018-07-08T13:27:29.706Z,1.40
2018-07-08T13:30:03.082Z,1.50
2018-07-08T13:32:33.928Z,1.60
2018-07-08T13:35:02.365Z,1.33
2018-07-08T13:37:34.743Z,1.27
2018-07-08T13:40:03.567Z,1.53
2018-07-08T13:42:32.669Z,1.50
2018-07-08T13:45:01.979Z,1.50
2018-07-08T13:47:31.391Z,1.37
2018-07-08T13:50:00.285Z,1.53
2018-07-08T13:52:28.783Z,1.20
2018-07-08T13:54:58.417Z,1.40
2018-07-08T13:57:29.737Z,1.43
2018-07-08T14:00:00.354Z,1.43
2018-07-08T14:02:29.714Z,1.50
2018-07-08T14:04:58.596Z,1.50
2018-07-08T14:07:35.406Z,1.30
2018-07-08T14:10:06.766Z,1.17
2018-07-08T14:12:34.993Z,1.13
2018-07-08T14:15:03.494Z,1.30
2018-07-08T14:17:32.030Z,1.33
2018-07-08T14:20:02.554Z,1.40
2018-07-08T14:22:30.771Z,1.50
2018-07-08T14:25:00.357Z,1.60
2018-07-08T14:27:28.646Z,1.60
2018-07-08T14:29:57.378Z,1.40
2018-07-08T14:32:26.107Z,1.23
2018-07-08T14:34:54.901Z,1.20
2018-07-08T14:37:23.296Z,1.50
2018-07-08T14:39:52.099Z,1.30
2018-07-08T14:42:22.700Z,1.37
2018-07-08T14:44:50.916Z,1.10
2018-07-08T14:47:19.241Z,1.40
2018-07-08T14:49:47.789Z,1.27
2018-07-08T14:52:16.905Z,1.50
2018-07-08T14:54:45.352Z,1.30
2018-07-08T14:57:14.345Z,1.30
2018-07-08T14:59:47.052Z,1.23
2018-07-08T15:02:16.339Z,1.40
2018-07-08T15:04:45.186Z,1.37
2018-07-08T15:07:15.796Z,1.40
2018-07-08T15:09:44.161Z,1.43
2018-07-08T15:12:14.720Z,1.43
2018-07-08T15:14:44.982Z,1.37
2018-07-08T15:17:13.277Z,1.47
2018-07-08T15:19:41.672Z,1.53
2018-07-08T15:22:11.682Z,1.30
2018-07-08T15:24:41.757Z,1.40
2018-07-08T15:27:10.049Z,1.47
2018-07-08T15:29:38.792Z,1.70
2018-07-08T15:32:10.750Z,1.80
2018-07-08T15:34:41.948Z,1.70
2018-07-08T15:37:10.238Z,2.17
2018-07-08T15:39:38.609Z,1.50
2018-07-08T15:42:06.985Z,1.77
2018-07-08T15:44:35.344Z,1.50
2018-07-08T15:47:03.989Z,1.70
2018-07-08T15:49:32.557Z,1.60
2018-07-08T15:52:03.396Z,1.60
2018-07-08T15:54:31.961Z,1.50
2018-07-08T15:57:01.598Z,1.60
2018-07-08T15:59:31.854Z,2.37
2018-07-08T16:02:01.326Z,1.60
2018-07-08T16:04:30.629Z,2.13
2018-07-08T16:07:00.800Z,1.67
2018-07-08T16:09:29.265Z,1.80
2018-07-08T16:11:57.604Z,1.70
2018-07-08T16:14:27.361Z,1.50
2018-07-08T16:16:55.720Z,1.50
2018-07-08T16:19:24.017Z,1.70
2018-07-08T16:21:52.222Z,1.40
2018-07-08T16:24:21.596Z,1.47
2018-07-08T16:26:51.049Z,1.50
2018-07-08T16:29:20.652Z,1.53
2018-07-08T16:31:49.046Z,1.60
2018-07-08T16:34:18.884Z,1.40
2018-07-08T16:36:47.631Z,1.53
2018-07-08T16:39:17.081Z,1.43
2018-07-08T16:41:45.838Z,1.70
2018-07-08T16:44:16.005Z,1.63
2018-07-08T16:46:45.821Z,1.60
2018-07-08T16:49:15.166Z,1.33
2018-07-08T16:51:46.099Z,1.57
2018-07-08T16:54:15.955Z,1.60
2018-07-08T16:56:44.750Z,1.60
2018-07-08T16:59:15.133Z,2.33
2018-07-08T17:01:43.744Z,1.40
2018-07-08T17:04:12.634Z,1.40
2018-07-08T17:06:43.037Z,1.50
2018-07-08T17:09:13.706Z,1.50
2018-07-08T17:11:44.400Z,1.60
2018-07-08T17:14:12.730Z,2.07
2018-07-08T17:16:41.762Z,1.70
2018-07-08T17:19:12.022Z,1.40
2018-07-08T17:21:41.276Z,1.60
2018-07-08T17:24:10.491Z,1.40
2018-07-08T17:26:39.268Z,1.40
2018-07-08T17:29:08.623Z,1.63
2018-07-08T17:31:37.803Z,1.47
2018-07-08T17:34:07.531Z,1.70
2018-07-08T17:36:37.125Z,1.60
2018-07-08T17:39:11.950Z,1.50
2018-07-08T17:41:40.399Z,1.20
2018-07-08T17:44:09.350Z,1.20
2018-07-08T17:46:39.154Z,1.50
2018-07-08T17:49:07.422Z,1.30
2018-07-08T17:51:37.351Z,1.40
2018-07-08T17:54:05.630Z,1.10
2018-07-08T17:56:33.971Z,1.10
2018-07-08T17:59:03.679Z,1.27
2018-07-08T18:01:33.339Z,1.30
2018-07-08T18:04:03.139Z,1.40
2018-07-08T18:06:32.122Z,1.30
2018-07-08T18:09:02.419Z,1.17
2018-07-08T18:11:30.860Z,1.57
2018-07-08T18:13:58.952Z,1.20
2018-07-08T18:16:28.635Z,1.47
2018-07-08T18:18:56.677Z,1.20
2018-07-08T18:21:24.844Z,1.40
2018-07-08T18:23:54.275Z,1.30
2018-07-08T18:26:24.803Z,1.30
2018-07-08T18:28:53.922Z,1.20
2018-07-08T18:31:24.649Z,1.07
2018-07-08T18:33:53.112Z,1.43
2018-07-08T18:36:22.806Z,1.30
2018-07-08T18:38:52.163Z,1.47
2018-07-08T18:41:24.602Z,1.40
2018-07-08T18:43:53.695Z,1.30
2018-07-08T18:46:22.902Z,1.03
2018-07-08T18:48:52.218Z,1.30
2018-07-08T18:51:23.592Z,1.10
2018-07-08T18:53:52.266Z,1.40
2018-07-08T18:56:26.609Z,1.33
2018-07-08T18:58:54.677Z,1.40
2018-07-08T19:01:23.351Z,1.40
2018-07-08T19:03:53.794Z,1.37
2018-07-08T19:06:22.460Z,1.60
2018-07-08T19:08:52.267Z,1.30
2018-07-08T19:11:23.659Z,1.40
2018-07-08T19:13:56.094Z,1.13
2018-07-08T19:16:25.757Z,1.33
2018-07-08T19:18:54.393Z,1.40
2018-07-08T19:21:23.667Z,1.47
2018-07-08T19:23:56.639Z,1.20
2018-07-08T19:26:24.946Z,1.50
2018-07-08T19:28:54.035Z,1.40
2018-07-08T19:31:22.420Z,1.40
2018-07-08T19:33:51.270Z,1.60
2018-07-08T19:36:20.018Z,1.30
2018-07-08T19:38:53.922Z,1.60
2018-07-08T19:41:22.147Z,1.30
2018-07-08T19:43:50.408Z,1.33
2018-07-08T19:46:18.526Z,1.40
2018-07-08T19:48:49.842Z,1.30
2018-07-08T19:51:18.887Z,1.43
2018-07-08T19:56:27.187Z,1.13
2018-07-08T19:58:55.867Z,1.60
2018-07-08T20:01:25.260Z,1.30
2018-07-08T20:03:54.827Z,1.30
2018-07-08T20:06:23.263Z,1.30
2018-07-08T20:08:52.782Z,1.10
2018-07-08T20:11:21.821Z,1.20
2018-07-08T20:13:50.844Z,1.10
2018-07-08T20:16:20.062Z,2.43
2018-07-08T20:18:51.146Z,1.30
2018-07-08T20:21:20.810Z,1.10
2018-07-08T20:23:52.854Z,1.47
2018-07-08T20:26:21.796Z,1.37
2018-07-08T20:28:53.101Z,1.67
2018-07-08T20:31:21.175Z,1.50
2018-07-08T20:33:51.590Z,1.43
2018-07-08T20:36:19.585Z,1.63
2018-07-08T20:38:49.135Z,1.40
2018-07-08T20:41:19.496Z,1.30
2018-07-08T20:43:53.894Z,1.50
2018-07-08T20:46:25.534Z,1.70
2018-07-08T20:48:55.888Z,2.30
2018-07-08T20:51:26.183Z,1.50
2018-07-08T20:53:55.671Z,1.73
2018-07-08T20:56:26.607Z,1.30
2018-07-08T20:58:55.674Z,1.20
2018-07-08T21:01:24.095Z,1.70
2018-07-08T21:03:55.376Z,1.70
2018-07-08T21:06:26.143Z,1.50
2018-07-08T21:08:54.240Z,1.40
2018-07-08T21:11:28.287Z,1.77
2018-07-08T21:13:58.358Z,1.47
2018-07-08T21:16:27.920Z,1.27
2018-07-08T21:19:07.554Z,1.50
2018-07-08T21:21:36.241Z,1.63
2018-07-08T21:24:06.613Z,1.57
2018-07-08T21:26:43.042Z,1.40
2018-07-08T21:29:11.562Z,1.47
2018-07-08T21:31:40.781Z,1.40
2018-07-08T21:34:08.797Z,1.57
2018-07-08T21:36:37.922Z,1.87
2018-07-08T21:39:07.566Z,1.53
2018-07-08T21:41:37.117Z,1.80
2018-07-08T21:44:06.918Z,1.70
2018-07-08T21:46:36.920Z,2.10
2018-07-08T21:49:05.441Z,1.83
2018-07-08T21:51:35.176Z,1.63
2018-07-08T21:54:14.343Z,1.50
2018-07-08T21:56:42.723Z,1.40
2018-07-08T21:59:11.382Z,1.63
2018-07-08T22:02:57.966Z,1.83
2018-07-08T22:05:28.729Z,1.83
2018-07-08T22:08:03.694Z,1.70
2018-07-08T22:10:34.053Z,2.03
2018-07-08T22:13:03.177Z,1.60
2018-07-08T22:15:33.546Z,1.90
2018-07-08T22:18:01.619Z,1.43
2018-07-08T22:20:30.370Z,1.63
2018-07-08T22:22:59.698Z,1.70
2018-07-08T22:25:29.134Z,1.67
2018-07-08T22:27:57.702Z,1.70
2018-07-08T22:30:26.214Z,1.50
2018-07-08T22:32:54.520Z,1.83
2018-07-08T22:35:22.769Z,1.60
2018-07-08T22:37:52.711Z,1.60
2018-07-08T22:40:21.676Z,1.40
2018-07-08T22:42:52.692Z,1.60
2018-07-08T22:45:20.740Z,1.80
2018-07-08T22:47:49.013Z,1.83
2018-07-08T22:50:17.017Z,1.43
2018-07-08T22:52:45.099Z,1.40
2018-07-08T22:55:13.541Z,1.60
2018-07-08T22:57:43.269Z,1.83
2018-07-08T23:00:25.951Z,1.60
2018-07-08T23:04:05.342Z,1.50
2018-07-08T23:06:33.623Z,1.50
2018-07-08T23:09:04.584Z,1.57
2018-07-08T23:11:32.762Z,1.70
2018-07-08T23:14:01.030Z,1.63
2018-07-08T23:16:30.166Z,1.60
2018-07-08T23:18:58.317Z,1.60
2018-07-08T23:21:26.589Z,1.53
2018-07-08T23:23:54.700Z,1.37
2018-07-08T23:26:23.234Z,1.63
2018-07-08T23:28:51.359Z,1.70
2018-07-08T23:31:21.717Z,1.50
2018-07-08T23:33:49.741Z,1.50
2018-07-08T23:36:17.749Z,1.43
2018-07-08T23:38:45.997Z,1.43
2018-07-08T23:41:14.621Z,1.60
2018-07-08T23:43:44.394Z,1.33
2018-07-08T23:46:12.494Z,1.37
2018-07-08T23:48:40.540Z,1.53
2018-07-08T23:51:08.691Z,1.50
2018-07-08T23:53:36.968Z,1.47
2018-07-08T23:56:05.879Z,1.63
2018-07-08T23:58:35.020Z,1.80
